Time;durP1;ratioP1;P1;durP2;ratioP2;P2;SDS_P1;SDS_P2;PMS_P1;PMS_P2;Temp;Humidity;BMP_temperature;BMP_pressure;BME280_temperature;BME280_humidity;BME280_pressure;Samples;Min_cycle;Max_cycle;Signal;HPM_P1;HPM_P2
2023/04/26 00:00:48;;;;;;;;;;;;;;;8.37;100.00;99685.84;5576993;31;34469;-71
2023/04/26 00:03:51;;;;;;;;;;;;;;;8.32;100.00;99688.16;5590465;31;34483;-70
2023/04/26 00:06:54;;;;;;;;;;;;;;;8.29;100.00;99689.31;5590046;31;34439;-72
2023/04/26 00:09:57;;;;;;;;;;;;;;;8.34;100.00;99687.97;5590428;31;35071;-71
2023/04/26 00:12:59;;;;;;;;;;;;;;;8.32;100.00;99696.09;5590447;31;34661;-70
2023/04/26 00:16:02;;;;;;;;;;;;;;;8.35;100.00;99700.19;5590403;31;35002;-69
2023/04/26 00:19:05;;;;;;;;;;;;;;;8.27;100.00;99699.22;5576906;31;34415;-70
2023/04/26 00:22:07;;;;;;;;;;;;;;;8.33;100.00;99703.00;5590742;31;35004;-70
2023/04/26 00:25:10;;;;;;;;;;;;;;;8.36;100.00;99705.31;5590267;31;35066;-69
2023/04/26 00:28:12;;;;;;;;;;;;;;;8.34;100.00;99709.94;5576563;31;34466;-69
2023/04/26 00:31:16;;;;;;;;;;;;;;;8.37;100.00;99706.97;5590413;31;32997;-70
2023/04/26 00:34:19;;;;;;;;;;;;;;;8.32;100.00;99713.75;5590373;31;34375;-70
2023/04/26 00:37:22;;;;;;;;;;;;;;;8.34;100.00;99719.69;5590637;31;35044;-70
2023/04/26 00:40:25;;;;;;;;;;;;;;;8.24;100.00;99723.31;5590222;31;34935;-69
2023/04/26 00:43:27;;;;;;;;;;;;;;;8.32;100.00;99722.50;5590148;31;34547;-70
2023/04/26 00:46:30;;;;;;;;;;;;;;;8.24;100.00;99719.84;5590096;31;34392;-70
2023/04/26 00:49:33;;;;;;;;;;;;;;;8.21;100.00;99730.75;5590063;31;35124;-70
2023/04/26 00:52:35;;;;;;;;;;;;;;;8.20;100.00;99724.66;5590169;31;35175;-70
2023/04/26 00:55:38;;;;;;;;;;;;;;;8.10;100.00;99731.94;5590495;31;34382;-68
2023/04/26 00:58:41;;;;;;;;;;;;;;;8.07;100.00;99727.00;5590536;31;34280;-69
2023/04/26 01:01:44;;;;;;;;;;;;;;;8.04;100.00;99722.03;5590120;31;34408;-69
2023/04/26 01:04:46;;;;;;;;;;;;;;;7.97;100.00;99733.44;5589946;31;35147;-70
2023/04/26 01:07:49;;;;;;;;;;;;;;;7.95;100.00;99735.41;5590063;31;34372;-70
2023/04/26 01:10:53;;;;;;;;;;;;;;;7.94;100.00;99733.78;5576116;31;34507;-69
2023/04/26 01:13:56;;;;;;;;;;;;;;;7.89;100.00;99744.00;5576183;31;34788;-70
2023/04/26 01:16:59;;;;;;;;;;;;;;;7.75;100.00;99738.38;5589994;31;34501;-69
2023/04/26 01:20:01;;;;;;;;;;;;;;;7.66;100.00;99742.03;5590012;31;35170;-69
2023/04/26 01:23:05;;;;;;;;;;;;;;;7.66;100.00;99744.66;5576709;31;34562;-70
2023/04/26 01:26:07;;;;;;;;;;;;;;;7.68;100.00;99747.16;5589708;31;34473;-71
2023/04/26 01:29:20;;;;;;;;;;;;;;;7.65;100.00;99750.91;5590236;31;34389;-70
2023/04/26 01:32:22;;;;;;;;;;;;;;;7.62;100.00;99755.72;5589806;31;34547;-71
2023/04/26 01:35:25;;;;;;;;;;;;;;;7.58;100.00;99757.03;5589788;31;34511;-69
2023/04/26 01:38:27;;;;;;;;;;;;;;;7.65;100.00;99761.47;5590014;31;35165;-70
2023/04/26 01:41:31;;;;;;;;;;;;;;;7.63;100.00;99757.37;5590142;31;34392;-69
2023/04/26 01:44:34;;;;;;;;;;;;;;;7.66;100.00;99770.22;5590056;31;34564;-70
2023/04/26 01:47:37;;;;;;;;;;;;;;;7.63;100.00;99770.56;5589745;31;34380;-70
2023/04/26 01:50:39;;;;;;;;;;;;;;;7.52;100.00;99769.06;5589984;31;34529;-70
2023/04/26 01:53:42;;;;;;;;;;;;;;;7.51;100.00;99766.59;5589841;31;35086;-70
2023/04/26 01:56:45;;;;;;;;;;;;;;;7.55;100.00;99776.66;5589847;31;35055;-70
2023/04/26 01:59:47;;;;;;;;;;;;;;;7.56;100.00;99777.47;5589446;31;34545;-69
2023/04/26 02:02:53;;;;;;;;;;;;;;;7.56;100.00;99774.84;5589559;31;35199;-71
2023/04/26 02:05:57;;;;;;;;;;;;;;;7.49;100.00;99777.31;5589347;31;34488;-70
2023/04/26 02:09:00;;;;;;;;;;;;;;;7.43;100.00;99773.50;5589466;31;35190;-68
2023/04/26 02:12:03;;;;;;;;;;;;;;;7.43;100.00;99777.97;5589363;31;34586;-70
2023/04/26 02:15:07;;;;;;;;;;;;;;;7.51;100.00;99782.41;5589324;31;34420;-70
2023/04/26 02:18:10;;;;;;;;;;;;;;;7.53;100.00;99788.37;5589223;31;34391;-69
2023/04/26 02:21:15;;;;;;;;;;;;;;;7.56;100.00;99780.13;5575591;31;34935;-69
2023/04/26 02:24:18;;;;;;;;;;;;;;;7.56;100.00;99790.66;5589544;31;34791;-69
2023/04/26 02:27:20;;;;;;;;;;;;;;;7.57;100.00;99782.59;5588969;31;35103;-70
2023/04/26 02:30:23;;;;;;;;;;;;;;;7.57;100.00;99787.87;5588586;31;35126;-69
2023/04/26 02:33:25;;;;;;;;;;;;;;;7.60;100.00;99786.75;5588984;31;34771;-69
2023/04/26 02:36:28;;;;;;;;;;;;;;;7.56;100.00;99794.13;5589004;31;35147;-70
2023/04/26 02:39:31;;;;;;;;;;;;;;;7.56;100.00;99791.50;5589018;31;34397;-67
2023/04/26 02:42:34;;;;;;;;;;;;;;;7.55;100.00;99794.31;5575378;31;34656;-68
2023/04/26 02:45:43;;;;;;;;;;;;;;;7.50;100.00;99794.00;5589067;31;34502;-70
2023/04/26 02:48:46;;;;;;;;;;;;;;;7.43;100.00;99791.16;5588714;31;35016;-67
2023/04/26 02:51:48;;;;;;;;;;;;;;;7.38;100.00;99786.38;5588800;31;34500;-68
2023/04/26 02:54:51;;;;;;;;;;;;;;;7.45;100.00;99797.13;5588673;31;34423;-67
2023/04/26 02:57:53;;;;;;;;;;;;;;;7.44;100.00;99806.00;5574747;31;35164;-69
2023/04/26 03:00:57;;;;;;;;;;;;;;;7.45;100.00;99809.47;5588965;31;34537;-73
2023/04/26 03:04:03;;;;;;;;;;;;;;;7.46;100.00;99806.66;5588559;31;35070;-70
2023/04/26 03:07:07;;;;;;;;;;;;;;;7.34;100.00;99816.72;5588717;31;34474;-70
2023/04/26 03:10:10;;;;;;;;;;;;;;;7.28;100.00;99835.81;5574824;31;35194;-71
2023/04/26 03:13:14;;;;;;;;;;;;;;;7.25;100.00;99827.41;5588445;31;34433;-70
2023/04/26 03:16:20;;;;;;;;;;;;;;;7.23;100.00;99840.75;5588321;31;34415;-71
2023/04/26 03:19:23;;;;;;;;;;;;;;;7.12;100.00;99840.19;5588512;31;34335;-71
2023/04/26 03:22:25;;;;;;;;;;;;;;;7.26;100.00;99844.88;5588514;31;35106;-70
2023/04/26 03:25:28;;;;;;;;;;;;;;;7.21;100.00;99855.09;5588030;31;34572;-71
2023/04/26 03:28:30;;;;;;;;;;;;;;;7.18;100.00;99847.47;5588075;31;35054;-71
2023/04/26 03:31:33;;;;;;;;;;;;;;;7.09;100.00;99848.44;5588458;31;34443;-71
2023/04/26 03:34:36;;;;;;;;;;;;;;;7.01;100.00;99856.31;5587992;31;34445;-70
2023/04/26 03:37:39;;;;;;;;;;;;;;;6.91;100.00;99859.91;5588213;31;34384;-71
2023/04/26 03:40:42;;;;;;;;;;;;;;;6.90;100.00;99866.16;5574554;31;34568;-70
2023/04/26 03:43:45;;;;;;;;;;;;;;;6.82;100.00;99875.81;5589902;31;34618;-71
2023/04/26 03:46:48;;;;;;;;;;;;;;;6.74;100.00;99870.47;5590665;31;34449;-71
2023/04/26 03:49:51;;;;;;;;;;;;;;;6.67;100.00;99870.31;5590910;31;34430;-69
2023/04/26 03:52:53;;;;;;;;;;;;;;;6.68;100.00;99864.03;5590756;31;34465;-70
2023/04/26 03:55:56;;;;;;;;;;;;;;;6.75;100.00;99880.06;5590657;31;34317;-69
2023/04/26 03:58:59;;;;;;;;;;;;;;;6.70;100.00;99884.97;5590927;31;34478;-69
2023/04/26 04:02:02;;;;;;;;;;;;;;;6.68;100.00;99879.03;5591106;31;34480;-69
2023/04/26 04:05:05;;;;;;;;;;;;;;;6.48;100.00;99887.13;5590484;31;34400;-69
2023/04/26 04:08:08;;;;;;;;;;;;;;;6.60;100.00;99887.69;5590450;31;35015;-68
2023/04/26 04:11:11;;;;;;;;;;;;;;;6.72;100.00;99888.28;5590664;31;34533;-70
2023/04/26 04:14:13;;;;;;;;;;;;;;;6.64;100.00;99886.41;5590554;31;34993;-69
2023/04/26 04:17:16;;;;;;;;;;;;;;;6.66;100.00;99900.25;5590433;31;33900;-70
2023/04/26 04:20:20;;;;;;;;;;;;;;;6.72;100.00;99902.28;5590541;31;35093;-69
2023/04/26 04:23:23;;;;;;;;;;;;;;;6.73;100.00;99900.50;5590568;31;34344;-69
2023/04/26 04:26:27;;;;;;;;;;;;;;;6.83;100.00;99894.09;5590192;31;34468;-71
2023/04/26 04:29:30;;;;;;;;;;;;;;;6.91;100.00;99881.00;5590284;31;34474;-70
2023/04/26 04:32:33;;;;;;;;;;;;;;;7.01;100.00;99893.22;5590322;31;34398;-69
2023/04/26 04:35:35;;;;;;;;;;;;;;;7.15;100.00;99906.66;5590326;31;34592;-68
2023/04/26 04:38:38;;;;;;;;;;;;;;;7.23;100.00;99909.31;5576441;31;34404;-68
2023/04/26 04:41:46;;;;;;;;;;;;;;;7.28;100.00;99924.69;5590760;31;34406;-69
2023/04/26 04:44:49;;;;;;;;;;;;;;;7.37;100.00;99927.19;5576358;31;35051;-67
2023/04/26 04:47:52;;;;;;;;;;;;;;;7.40;100.00;99932.19;5590265;31;34635;-68
2023/04/26 04:50:57;;;;;;;;;;;;;;;7.28;100.00;99932.59;5589901;31;35145;-68
2023/04/26 04:54:08;;;;;;;;;;;;;;;7.31;100.00;99938.38;5589733;31;34457;-67
2023/04/26 04:57:10;;;;;;;;;;;;;;;7.27;100.00;99946.78;5591783;31;34445;-68
2023/04/26 05:00:14;;;;;;;;;;;;;;;7.28;100.00;99948.44;5589941;31;34492;-68
2023/04/26 05:03:17;;;;;;;;;;;;;;;7.22;100.00;99963.06;5576178;31;34480;-66
2023/04/26 05:06:20;;;;;;;;;;;;;;;7.17;100.00;99956.59;5589806;31;32639;-68
2023/04/26 05:09:23;;;;;;;;;;;;;;;7.18;100.00;99966.19;5589898;31;34320;-68
2023/04/26 05:12:25;;;;;;;;;;;;;;;7.16;100.00;99962.87;5589758;31;34524;-69
2023/04/26 05:15:28;;;;;;;;;;;;;;;7.22;100.00;99976.25;5589891;31;35096;-67
2023/04/26 05:18:31;;;;;;;;;;;;;;;7.21;100.00;99973.81;5589574;31;34581;-70
2023/04/26 05:21:34;;;;;;;;;;;;;;;7.18;100.00;99982.84;5589829;31;34462;-67
2023/04/26 05:24:37;;;;;;;;;;;;;;;7.14;100.00;99985.94;5589851;31;34505;-67
2023/04/26 05:27:40;;;;;;;;;;;;;;;7.15;100.00;99984.97;5589874;31;34290;-69
2023/04/26 05:30:43;;;;;;;;;;;;;;;7.18;100.00;99974.09;5589687;31;34511;-69
2023/04/26 05:33:46;;;;;;;;;;;;;;;7.31;100.00;99980.59;5589694;31;35099;-68
2023/04/26 05:36:50;;;;;;;;;;;;;;;7.38;100.00;99980.81;5589561;31;34686;-69
2023/04/26 05:39:53;;;;;;;;;;;;;;;7.51;100.00;99977.72;5589607;31;34536;-70
2023/04/26 05:42:56;;;;;;;;;;;;;;;7.58;100.00;99989.31;5589661;31;34991;-68
2023/04/26 05:46:01;;;;;;;;;;;;;;;7.51;100.00;99997.03;5589850;31;34422;-68
2023/04/26 05:49:03;;;;;;;;;;;;;;;7.58;100.00;99995.44;5589266;31;34516;-68
2023/04/26 05:52:10;;;;;;;;;;;;;;;7.61;100.00;99996.91;5589356;31;32936;-68
2023/04/26 05:55:16;;;;;;;;;;;;;;;7.53;100.00;100000.34;5589293;31;34019;-69
2023/04/26 05:58:18;;;;;;;;;;;;;;;7.67;100.00;99986.56;5589488;31;35393;-68
2023/04/26 06:01:21;;;;;;;;;;;;;;;7.85;100.00;99997.84;5589483;31;34535;-67
2023/04/26 06:04:24;;;;;;;;;;;;;;;7.89;100.00;100001.00;5588575;31;35116;-68
2023/04/26 06:07:30;;;;;;;;;;;;;;;7.87;100.00;100016.19;5575828;31;35065;-69
2023/04/26 06:10:34;;;;;;;;;;;;;;;7.96;100.00;100020.50;5588949;31;34472;-69
2023/04/26 06:13:36;;;;;;;;;;;;;;;8.05;100.00;100014.25;5589400;31;34506;-69
2023/04/26 06:16:40;;;;;;;;;;;;;;;8.07;100.00;100017.59;5575659;31;34973;-68
2023/04/26 06:19:45;;;;;;;;;;;;;;;8.19;100.00;100026.03;5588538;31;35130;-69
2023/04/26 06:22:48;;;;;;;;;;;;;;;8.33;100.00;100019.34;5589112;31;34333;-68
2023/04/26 06:25:50;;;;;;;;;;;;;;;8.24;99.16;100029.00;5588761;31;35126;-69
2023/04/26 06:28:53;;;;;;;;;;;;;;;8.38;96.53;100028.41;5588145;31;34567;-70
2023/04/26 06:31:55;;;;;;;;;;;;;;;8.47;94.82;100027.44;5588724;31;34511;-68
2023/04/26 06:34:58;;;;;;;;;;;;;;;8.55;93.34;100024.00;5588865;31;35064;-68
2023/04/26 06:38:00;;;;;;;;;;;;;;;8.84;91.02;100020.88;5575180;31;34566;-69
2023/04/26 06:41:03;;;;;;;;;;;;;;;8.66;88.37;100015.75;5588627;31;34340;-69
2023/04/26 06:44:06;;;;;;;;;;;;;;;8.84;84.63;100021.69;5574165;31;34443;-66
2023/04/26 06:47:13;;;;;;;;;;;;;;;9.01;84.75;100025.97;5588687;31;34413;-66
2023/04/26 06:50:15;;;;;;;;;;;;;;;9.29;79.75;100029.12;5584237;31;132293;-68
2023/04/26 06:53:18;;;;;;;;;;;;;;;9.45;75.42;100030.87;5575198;31;34494;-67
2023/04/26 06:56:24;;;;;;;;;;;;;;;9.63;76.26;100028.03;5575205;31;35077;-68
2023/04/26 06:59:26;;;;;;;;;;;;;;;9.89;73.23;100034.72;5588541;31;34536;-68
2023/04/26 07:02:29;;;;;;;;;;;;;;;10.01;70.94;100033.37;5588659;31;35237;-69
2023/04/26 07:05:32;;;;;;;;;;;;;;;10.74;67.51;100038.28;5588323;31;35041;-68
2023/04/26 07:08:34;;;;;;;;;;;;;;;11.14;62.98;100045.06;5588192;31;35059;-69
2023/04/26 07:11:37;;;;;;;;;;;;;;;11.52;60.27;100031.78;5588592;31;34311;-68
2023/04/26 07:14:40;;;;;;;;;;;;;;;11.11;55.73;100047.25;5588297;31;34469;-67
2023/04/26 07:17:42;;;;;;;;;;;;;;;11.19;55.74;100036.56;5589769;31;35120;-69
2023/04/26 07:20:45;;;;;;;;;;;;;;;11.74;53.71;100046.81;5590605;31;34479;-68
2023/04/26 07:23:51;;;;;;;;;;;;;;;12.26;51.56;100049.34;5590568;31;34353;-68
2023/04/26 07:26:55;;;;;;;;;;;;;;;11.32;51.98;100037.63;5590637;31;35099;-68
2023/04/26 07:29:59;;;;;;;;;;;;;;;12.47;49.28;100041.41;5590755;31;35020;-69
2023/04/26 07:33:02;;;;;;;;;;;;;;;12.70;47.50;100059.84;5590666;31;34552;-70
2023/04/26 07:36:05;;;;;;;;;;;;;;;12.09;47.07;100048.75;5577358;31;34348;-69
2023/04/26 07:39:09;;;;;;;;;;;;;;;11.97;45.28;100067.97;5590552;31;35126;-69
2023/04/26 07:42:11;;;;;;;;;;;;;;;12.17;45.97;100077.87;5592008;31;34533;-70
2023/04/26 07:45:14;;;;;;;;;;;;;;;13.14;44.38;100083.66;5576778;31;34364;-69
2023/04/26 07:48:18;;;;;;;;;;;;;;;12.86;44.32;100077.44;5590113;31;34380;-68
2023/04/26 07:51:20;;;;;;;;;;;;;;;12.04;45.71;100079.53;5590638;31;34659;-69
2023/04/26 07:54:23;;;;;;;;;;;;;;;13.24;44.98;100075.34;5590587;31;35025;-70
2023/04/26 07:57:25;;;;;;;;;;;;;;;14.06;42.12;100081.66;5590683;31;35026;-69
2023/04/26 08:00:28;;;;;;;;;;;;;;;13.81;42.51;100078.63;5590495;31;35110;-68
2023/04/26 08:03:31;;;;;;;;;;;;;;;13.98;43.67;100083.66;5590462;31;34746;-68
2023/04/26 08:06:34;;;;;;;;;;;;;;;13.92;42.79;100093.25;5590459;31;35174;-71
2023/04/26 08:09:37;;;;;;;;;;;;;;;14.19;43.33;100092.38;5590425;31;34408;-70
2023/04/26 08:12:45;;;;;;;;;;;;;;;15.16;42.69;100097.41;5590092;31;34537;-68
2023/04/26 08:15:48;;;;;;;;;;;;;;;15.50;41.72;100091.87;5589948;31;34457;-68
2023/04/26 08:18:50;;;;;;;;;;;;;;;17.04;37.66;100105.41;5590340;31;34331;-67
2023/04/26 08:21:53;;;;;;;;;;;;;;;14.72;40.23;100101.44;5590363;31;34589;-67
2023/04/26 08:24:56;;;;;;;;;;;;;;;14.79;39.04;100106.81;5590135;31;35072;-68
2023/04/26 08:27:58;;;;;;;;;;;;;;;13.49;41.07;100105.88;5589526;31;35061;-68
2023/04/26 08:31:00;;;;;;;;;;;;;;;13.62;41.47;100110.50;5589926;31;34440;-70
2023/04/26 08:34:03;;;;;;;;;;;;;;;14.66;39.30;100110.28;5589907;31;34386;-69
2023/04/26 08:37:09;;;;;;;;;;;;;;;14.27;40.08;100108.25;5589479;31;35464;-66
2023/04/26 08:40:20;;;;;;;;;;;;;;;13.87;41.05;100127.69;5576538;31;34990;-67
2023/04/26 08:43:22;;;;;;;;;;;;;;;14.36;40.76;100114.25;5589916;31;34443;-66
2023/04/26 08:46:25;;;;;;;;;;;;;;;14.91;39.19;100121.19;5590233;31;34974;-68
2023/04/26 08:49:42;;;;;;;;;;;;;;;15.61;38.25;100125.22;5575803;31;35133;-68
2023/04/26 08:52:46;;;;;;;;;;;;;;;15.65;38.87;100123.78;5590040;31;34537;-69
2023/04/26 08:55:49;;;;;;;;;;;;;;;13.42;41.53;100121.81;5589854;31;35233;-69
2023/04/26 08:58:52;;;;;;;;;;;;;;;14.67;38.89;100122.56;5589611;31;35023;-67
2023/04/26 09:01:56;;;;;;;;;;;;;;;15.32;36.61;100130.94;5590261;31;34994;-68
2023/04/26 09:04:58;;;;;;;;;;;;;;;15.12;37.38;100126.41;5590224;31;34961;-71
2023/04/26 09:08:04;;;;;;;;;;;;;;;13.85;38.96;100127.88;5589789;31;34609;-69
2023/04/26 09:11:06;;;;;;;;;;;;;;;15.75;37.11;100136.72;5589981;31;34586;-70
2023/04/26 09:14:09;;;;;;;;;;;;;;;16.06;35.58;100128.87;5589689;31;34902;-70
2023/04/26 09:17:23;;;;;;;;;;;;;;;16.49;34.12;100127.28;5575925;31;34395;-68
2023/04/26 09:20:27;;;;;;;;;;;;;;;15.50;36.15;100131.97;5589667;31;34462;-68
2023/04/26 09:23:31;;;;;;;;;;;;;;;14.95;36.81;100122.47;5589492;31;34569;-69
2023/04/26 09:26:33;;;;;;;;;;;;;;;16.95;35.39;100127.09;5589541;31;35062;-69
2023/04/26 09:29:36;;;;;;;;;;;;;;;15.09;36.19;100123.31;5589884;31;34338;-70
2023/04/26 09:32:47;;;;;;;;;;;;;;;17.32;33.46;100130.78;5589521;31;34960;-67
2023/04/26 09:35:50;;;;;;;;;;;;;;;16.04;34.25;100130.91;5589476;31;35064;-69
2023/04/26 09:38:53;;;;;;;;;;;;;;;16.23;33.60;100127.38;5589241;31;34464;-67
2023/04/26 09:41:56;;;;;;;;;;;;;;;17.00;32.61;100128.28;5588561;31;34967;-68
2023/04/26 09:45:05;;;;;;;;;;;;;;;16.30;33.23;100124.69;5575832;31;34426;-69
2023/04/26 09:48:29;;;;;;;;;;;;;;;17.30;32.03;100119.44;5589298;31;34526;-68
2023/04/26 09:51:31;;;;;;;;;;;;;;;17.61;31.76;100117.78;5589122;31;35321;-69
2023/04/26 09:54:41;;;;;;;;;;;;;;;15.71;34.10;100114.09;5589039;31;34550;-70
2023/04/26 09:57:43;;;;;;;;;;;;;;;15.39;36.49;100121.91;5589064;31;34459;-68
2023/04/26 10:00:48;;;;;;;;;;;;;;;14.53;37.59;100128.87;5589623;31;34333;-69
2023/04/26 10:03:51;;;;;;;;;;;;;;;15.22;35.33;100112.63;5588790;31;34408;-69
2023/04/26 10:06:54;;;;;;;;;;;;;;;15.04;36.18;100117.75;5589017;31;34382;-71
2023/04/26 10:09:57;;;;;;;;;;;;;;;14.94;35.92;100112.81;5575418;31;35033;-67
2023/04/26 10:12:59;;;;;;;;;;;;;;;14.72;37.08;100121.97;5588980;31;35061;-69
2023/04/26 10:16:03;;;;;;;;;;;;;;;14.10;36.25;100109.56;5589091;31;34350;-70
2023/04/26 10:19:05;;;;;;;;;;;;;;;13.92;37.42;100123.44;5588956;31;35226;-68
2023/04/26 10:22:13;;;;;;;;;;;;;;;13.82;38.44;100116.78;5589063;31;34362;-69
2023/04/26 10:25:16;;;;;;;;;;;;;;;13.55;38.37;100112.28;5589142;31;34650;-67
2023/04/26 10:28:42;;;;;;;;;;;;;;;13.87;36.96;100115.19;5588971;31;35057;-69
2023/04/26 10:32:05;;;;;;;;;;;;;;;14.02;36.88;100120.41;5566711;31;33927;-71
2023/04/26 10:35:29;;;;;;;;;;;;;;;14.99;35.84;100115.69;5577738;31;33864;-71
2023/04/26 10:38:36;;;;;;;;;;;;;;;14.75;34.18;100113.59;5589833;31;34482;-70
2023/04/26 10:41:41;;;;;;;;;;;;;;;15.71;32.71;100120.28;5589643;31;34832;-70
2023/04/26 10:44:56;;;;;;;;;;;;;;;14.73;34.41;100120.94;5564382;31;34153;-73
2023/04/26 10:48:18;;;;;;;;;;;;;;;16.39;32.94;100126.09;5588711;31;35167;-70
2023/04/26 10:51:21;;;;;;;;;;;;;;;15.68;31.28;100127.91;5575497;31;34542;-71
2023/04/26 10:54:43;;;;;;;;;;;;;;;13.75;33.74;100115.91;5590606;31;34993;-70
2023/04/26 10:57:50;;;;;;;;;;;;;;;16.96;30.77;100119.88;5590860;31;34514;-70
2023/04/26 11:01:03;;;;;;;;;;;;;;;17.26;30.71;100122.78;5590930;31;34314;-71
2023/04/26 11:04:09;;;;;;;;;;;;;;;17.35;30.86;100119.59;5590974;31;34491;-71
2023/04/26 11:07:12;;;;;;;;;;;;;;;16.22;31.71;100112.34;5590838;31;35042;-70
2023/04/26 11:10:21;;;;;;;;;;;;;;;15.25;33.31;100114.87;5590850;31;35125;-71
2023/04/26 11:13:24;;;;;;;;;;;;;;;14.09;35.22;100110.59;5590944;31;34352;-72
2023/04/26 11:16:27;;;;;;;;;;;;;;;14.28;34.88;100109.06;5590662;31;34350;-71
2023/04/26 11:19:30;;;;;;;;;;;;;;;15.61;32.61;100114.53;5590858;31;34393;-73
2023/04/26 11:22:33;;;;;;;;;;;;;;;17.87;30.56;100114.84;5591208;31;34448;-72
2023/04/26 11:25:37;;;;;;;;;;;;;;;16.87;32.11;100121.16;5591105;31;34467;-70
2023/04/26 11:28:43;;;;;;;;;;;;;;;16.05;32.80;100109.31;5591043;31;34410;-69
2023/04/26 11:31:56;;;;;;;;;;;;;;;14.34;36.38;100110.91;5591089;31;35280;-69
2023/04/26 11:34:59;;;;;;;;;;;;;;;13.02;38.45;100130.44;5590939;31;34453;-70
2023/04/26 11:38:05;;;;;;;;;;;;;;;12.83;37.59;100121.22;5589350;31;35047;-69
2023/04/26 11:41:09;;;;;;;;;;;;;;;13.24;37.45;100137.44;5590518;31;34450;-70
2023/04/26 11:44:11;;;;;;;;;;;;;;;13.21;37.42;100121.84;5576682;31;35217;-71
2023/04/26 11:47:14;;;;;;;;;;;;;;;15.04;35.02;100129.25;5590616;31;34552;-71
2023/04/26 11:50:17;;;;;;;;;;;;;;;15.53;33.14;100128.09;5590910;31;34327;-71
2023/04/26 11:53:20;;;;;;;;;;;;;;;15.87;32.64;100127.06;5590556;31;34352;-70
2023/04/26 11:56:24;;;;;;;;;;;;;;;14.97;35.28;100122.25;5590744;31;34631;-68
2023/04/26 11:59:31;;;;;;;;;;;;;;;15.58;35.03;100114.94;5590104;31;34511;-70
2023/04/26 12:02:34;;;;;;;;;;;;;;;15.63;34.72;100124.00;5589656;31;35108;-70
2023/04/26 12:05:37;;;;;;;;;;;;;;;14.54;37.06;100121.72;5590473;31;35088;-71
2023/04/26 12:08:40;;;;;;;;;;;;;;;13.98;35.86;100118.34;5590425;31;35134;-70
2023/04/26 12:12:08;;;;;;;;;;;;;;;14.52;35.06;100124.59;5590246;31;35038;-71
2023/04/26 12:15:11;;;;;;;;;;;;;;;14.78;35.52;100123.84;5587706;31;34994;-69
2023/04/26 12:18:17;;;;;;;;;;;;;;;18.08;30.20;100127.03;5590275;31;34543;-70
2023/04/26 12:21:19;;;;;;;;;;;;;;;16.21;32.07;100118.75;5590581;31;34493;-67
2023/04/26 12:24:24;;;;;;;;;;;;;;;14.65;35.17;100138.00;5590570;31;34473;-69
2023/04/26 12:27:26;;;;;;;;;;;;;;;14.04;35.65;100123.69;5576666;31;34458;-72
2023/04/26 12:30:30;;;;;;;;;;;;;;;13.47;36.27;100131.91;5590388;31;34998;-70
2023/04/26 12:33:36;;;;;;;;;;;;;;;12.79;38.66;100143.06;5590044;31;34638;-70
2023/04/26 12:36:45;;;;;;;;;;;;;;;13.34;36.25;100137.94;5589978;31;34249;-69
2023/04/26 12:39:47;;;;;;;;;;;;;;;13.77;36.22;100136.03;5590257;31;35110;-70
2023/04/26 12:42:50;;;;;;;;;;;;;;;15.86;33.54;100128.91;5589959;31;34385;-71
2023/04/26 12:45:53;;;;;;;;;;;;;;;18.64;28.71;100127.63;5589871;31;34495;-72
2023/04/26 12:48:56;;;;;;;;;;;;;;;16.65;29.15;100128.72;5589898;31;34556;-70
2023/04/26 12:51:59;;;;;;;;;;;;;;;15.35;32.65;100125.16;5589814;31;34571;-68
2023/04/26 12:55:03;;;;;;;;;;;;;;;14.60;34.96;100136.94;5589525;31;34518;-70
2023/04/26 12:58:06;;;;;;;;;;;;;;;14.49;35.36;100134.84;5590047;31;35126;-69
2023/04/26 13:01:10;;;;;;;;;;;;;;;14.64;35.49;100146.19;5589769;31;35030;-70
2023/04/26 13:04:12;;;;;;;;;;;;;;;17.24;30.48;100152.47;5589869;31;34436;-68
2023/04/26 13:07:16;;;;;;;;;;;;;;;19.75;27.06;100151.22;5590384;31;34494;-72
2023/04/26 13:10:18;;;;;;;;;;;;;;;17.93;30.37;100140.78;5589723;31;34585;-70
2023/04/26 13:13:21;;;;;;;;;;;;;;;15.40;33.17;100144.91;5590056;31;34268;-69
2023/04/26 13:16:41;;;;;;;;;;;;;;;15.00;33.77;100149.41;5589547;31;34530;-73
2023/04/26 13:19:43;;;;;;;;;;;;;;;14.29;32.49;100153.38;5589292;31;35024;-71
2023/04/26 13:22:50;;;;;;;;;;;;;;;14.52;32.65;100147.78;5589483;31;34561;-70
2023/04/26 13:25:52;;;;;;;;;;;;;;;18.49;29.52;100156.72;5575774;31;34520;-69
2023/04/26 13:28:55;;;;;;;;;;;;;;;18.86;28.13;100157.53;5589458;31;34263;-73
2023/04/26 13:31:58;;;;;;;;;;;;;;;18.51;28.43;100154.63;5589510;31;34596;-73
2023/04/26 13:35:01;;;;;;;;;;;;;;;21.01;24.79;100160.44;5589362;31;35091;-71
2023/04/26 13:38:04;;;;;;;;;;;;;;;20.62;24.56;100160.19;5589098;31;34404;-70
2023/04/26 13:41:06;;;;;;;;;;;;;;;21.06;24.40;100169.41;5589453;31;34461;-71
2023/04/26 13:44:09;;;;;;;;;;;;;;;19.27;26.18;100156.72;5589392;31;34489;-69
2023/04/26 13:47:12;;;;;;;;;;;;;;;16.50;29.76;100173.63;5589152;31;35040;-68
2023/04/26 13:50:15;;;;;;;;;;;;;;;14.72;32.91;100165.53;5588936;31;34736;-68
2023/04/26 13:53:18;;;;;;;;;;;;;;;13.98;34.96;100172.50;5589228;31;34477;-68
2023/04/26 13:56:21;;;;;;;;;;;;;;;13.10;36.63;100180.91;5588784;31;34267;-66
2023/04/26 13:59:27;;;;;;;;;;;;;;;12.99;36.98;100168.91;5588966;31;34939;-69
2023/04/26 14:02:30;;;;;;;;;;;;;;;12.95;37.49;100183.63;5589235;31;34986;-70
2023/04/26 14:05:33;;;;;;;;;;;;;;;12.80;37.57;100189.97;5575497;31;35070;-70
2023/04/26 14:08:36;;;;;;;;;;;;;;;14.61;34.04;100182.13;5588919;31;34477;-69
2023/04/26 14:11:39;;;;;;;;;;;;;;;15.03;33.18;100191.72;5588925;31;34470;-70
2023/04/26 14:14:41;;;;;;;;;;;;;;;14.67;34.56;100183.16;5589264;31;34399;-70
2023/04/26 14:17:45;;;;;;;;;;;;;;;14.97;33.92;100181.84;5589006;31;34955;-73
2023/04/26 14:20:48;;;;;;;;;;;;;;;13.99;34.30;100179.47;5588913;31;34445;-70
2023/04/26 14:23:51;;;;;;;;;;;;;;;13.04;36.68;100184.31;5588782;31;34314;-71
2023/04/26 14:26:53;;;;;;;;;;;;;;;12.76;37.72;100180.72;5587976;31;34648;-69
2023/04/26 14:29:56;;;;;;;;;;;;;;;12.22;38.25;100172.22;5588515;31;34942;-69
2023/04/26 14:32:58;;;;;;;;;;;;;;;12.42;38.26;100190.13;5588476;31;34431;-73
2023/04/26 14:36:01;;;;;;;;;;;;;;;12.67;36.98;100187.16;5588912;31;34975;-72
2023/04/26 14:39:03;;;;;;;;;;;;;;;12.85;35.88;100184.94;5574580;31;34384;-72
2023/04/26 14:42:06;;;;;;;;;;;;;;;13.29;35.19;100187.50;5588633;31;34284;-70
2023/04/26 14:45:08;;;;;;;;;;;;;;;12.78;36.81;100195.47;5574708;31;35269;-71
2023/04/26 14:48:11;;;;;;;;;;;;;;;12.74;36.74;100193.37;5587997;31;35135;-71
2023/04/26 14:51:14;;;;;;;;;;;;;;;12.32;36.79;100192.22;5588244;31;34360;-69
2023/04/26 14:54:17;;;;;;;;;;;;;;;12.27;39.37;100205.25;5587900;31;34263;-70
2023/04/26 14:57:19;;;;;;;;;;;;;;;12.06;40.02;100194.50;5587566;31;34548;-68
2023/04/26 15:00:24;;;;;;;;;;;;;;;11.79;39.86;100192.44;5587881;31;35030;-68
2023/04/26 15:03:26;;;;;;;;;;;;;;;12.05;41.09;100206.97;5588647;31;35293;-67
2023/04/26 15:06:30;;;;;;;;;;;;;;;11.74;38.95;100200.97;5588454;31;34413;-70
2023/04/26 15:09:33;;;;;;;;;;;;;;;11.99;39.42;100193.59;5588073;31;35135;-70
2023/04/26 15:12:36;;;;;;;;;;;;;;;12.15;38.06;100209.38;5588171;31;34324;-68
2023/04/26 15:15:38;;;;;;;;;;;;;;;12.20;37.91;100206.97;5588505;31;34648;-70
2023/04/26 15:18:41;;;;;;;;;;;;;;;12.25;38.42;100209.13;5588173;31;34992;-67
2023/04/26 15:21:43;;;;;;;;;;;;;;;12.16;38.78;100219.81;5588020;31;34506;-71
2023/04/26 15:24:48;;;;;;;;;;;;;;;11.83;39.71;100220.31;5587965;31;35060;-73
2023/04/26 15:27:50;;;;;;;;;;;;;;;11.76;40.66;100218.38;5587900;31;34513;-69
2023/04/26 15:31:03;;;;;;;;;;;;;;;11.61;40.48;100219.31;5587721;31;34434;-71
2023/04/26 15:34:05;;;;;;;;;;;;;;;11.33;40.77;100224.31;5587848;31;34525;-68
2023/04/26 15:37:08;;;;;;;;;;;;;;;11.25;40.50;100206.63;5588146;31;34359;-73
2023/04/26 15:40:11;;;;;;;;;;;;;;;11.28;41.16;100216.87;5590439;31;34349;-71
2023/04/26 15:43:15;;;;;;;;;;;;;;;11.24;40.58;100225.38;5590555;31;35085;-73
2023/04/26 15:46:17;;;;;;;;;;;;;;;11.19;40.25;100217.09;5590615;31;35109;-71
2023/04/26 15:49:22;;;;;;;;;;;;;;;11.32;39.82;100207.56;5576478;31;34472;-70